Terminal Aerodrome Forecast
Issued by NWS

Home | Current Version | Previous Version | Text Only | Print | Product List | Glossary On
Versions: 1 2 3 4 5 6 7 8 9 10 11 12 13 14 15 16 17 18 19 20 21 22 23 24 25 26 27 28 29 30 31 32 33 34 35 36 37 38 39 40 41 42 43 44 45 46 47
000
FTUS45 KBOU 260010 AAA
TAFAPA
TAF AMD
KAPA 260010Z 2600/2624 14011KT P6SM FEW090 SCT140 BKN200
      TEMPO 2600/2602 VRB15G30KT -TSRA BKN090CB
     FM260400 19010KT P6SM FEW120 BKN220
     FM261500 03008KT P6SM FEW100 SCT220
     FM262000 06009KT P6SM SCT090 BKN150 PROB30 2621/2624 VRB20G35KT
      -TSRA BKN070CB=

USA.gov is the U.S. government's official web portal to all federal, state and local government web resources and services.